Time;durP1;ratioP1;P1;durP2;ratioP2;P2;SDS_P1;SDS_P2;PMS_P1;PMS_P2;Temp;Humidity;BMP_temperature;BMP_pressure;BME280_temperature;BME280_humidity;BME280_pressure;Samples;Min_cycle;Max_cycle;Signal;HPM_P1;HPM_P2
2023/08/16 00:00:27;;;;;;;22.13;14.43;;;;;;;;;;5031181;28;20434;-71
2023/08/16 00:02:53;;;;;;;22.48;14.50;;;;;;;;;;5041747;28;20421;-72
2023/08/16 00:05:19;;;;;;;24.70;15.00;;;;;;;;;;5039668;28;20025;-72
2023/08/16 00:07:45;;;;;;;23.95;15.02;;;;;;;;;;5030446;28;20154;-72
2023/08/16 00:10:12;;;;;;;21.95;14.70;;;;;;;;;;5027451;28;20524;-71
2023/08/16 00:12:39;;;;;;;23.75;16.85;;;;;;;;;;5034162;28;20026;-71
2023/08/16 00:15:06;;;;;;;24.05;15.00;;;;;;;;;;5045902;28;20029;-71
2023/08/16 00:17:33;;;;;;;35.70;16.88;;;;;;;;;;5036820;28;20400;-71
2023/08/16 00:20:00;;;;;;;24.38;15.82;;;;;;;;;;5045052;28;20095;-70
2023/08/16 00:22:27;;;;;;;25.00;16.58;;;;;;;;;;5036584;28;20025;-70
2023/08/16 00:24:53;;;;;;;26.73;16.80;;;;;;;;;;5039939;28;20040;-71
2023/08/16 00:27:20;;;;;;;23.63;16.55;;;;;;;;;;5037055;28;20029;-71
2023/08/16 00:29:49;;;;;;;27.00;17.05;;;;;;;;;;5013415;28;20034;-71
2023/08/16 00:32:15;;;;;;;27.85;17.95;;;;;;;;;;5037854;28;20024;-71
2023/08/16 00:34:41;;;;;;;31.48;19.40;;;;;;;;;;5046951;28;20037;-72
2023/08/16 00:37:08;;;;;;;27.98;18.00;;;;;;;;;;5043526;28;20032;-71
2023/08/16 00:39:34;;;;;;;27.38;18.08;;;;;;;;;;5028892;28;20013;-71
2023/08/16 00:42:00;;;;;;;24.98;15.90;;;;;;;;;;5029539;28;20044;-71
2023/08/16 00:44:27;;;;;;;30.45;17.00;;;;;;;;;;5018885;28;20033;-71
2023/08/16 00:46:54;;;;;;;23.30;12.75;;;;;;;;;;5020134;28;20045;-72
2023/08/16 00:49:20;;;;;;;14.25;10.82;;;;;;;;;;5038714;28;20064;-72
2023/08/16 00:51:47;;;;;;;16.35;10.77;;;;;;;;;;5029528;28;20514;-71
2023/08/16 00:54:13;;;;;;;16.52;11.02;;;;;;;;;;5032357;28;20581;-71
2023/08/16 00:56:40;;;;;;;14.65;10.48;;;;;;;;;;4996507;28;20029;-72
2023/08/16 00:59:07;;;;;;;17.35;10.73;;;;;;;;;;5019934;28;20049;-71
2023/08/16 01:01:33;;;;;;;20.25;11.85;;;;;;;;;;5018602;28;20034;-71
2023/08/16 01:03:59;;;;;;;18.42;12.68;;;;;;;;;;5018375;28;20341;-70
2023/08/16 01:06:26;;;;;;;15.63;12.25;;;;;;;;;;5018783;28;20037;-71
2023/08/16 01:08:52;;;;;;;23.25;13.90;;;;;;;;;;5017715;28;20124;-72
2023/08/16 01:11:30;;;;;;;21.13;12.38;;;;;;;;;;5014424;28;20022;-71
2023/08/16 01:14:05;;;;;;;20.40;13.00;;;;;;;;;;5014590;28;20108;-72
2023/08/16 01:16:32;;;;;;;21.08;12.85;;;;;;;;;;5011320;28;20034;-72
2023/08/16 01:18:59;;;;;;;17.75;12.50;;;;;;;;;;5018596;28;20033;-72
2023/08/16 01:21:26;;;;;;;19.23;12.35;;;;;;;;;;5021882;28;20045;-71
2023/08/16 01:24:07;;;;;;;20.45;12.23;;;;;;;;;;5025735;28;20037;-71
2023/08/16 01:26:38;;;;;;;16.35;12.13;;;;;;;;;;5016032;28;20105;-71
2023/08/16 01:29:06;;;;;;;27.63;15.13;;;;;;;;;;5018613;28;20037;-71
2023/08/16 01:31:34;;;;;;;22.75;16.13;;;;;;;;;;5021725;28;20041;-70
2023/08/16 01:34:00;;;;;;;24.05;15.77;;;;;;;;;;5022922;28;20037;-71
2023/08/16 01:36:27;;;;;;;27.08;16.13;;;;;;;;;;5027953;28;20043;-71
2023/08/16 01:38:54;;;;;;;27.23;15.73;;;;;;;;;;5016438;28;20100;-71
2023/08/16 01:41:36;;;;;;;21.42;15.90;;;;;;;;;;5022016;28;20022;-71
2023/08/16 01:44:02;;;;;;;24.55;16.42;;;;;;;;;;5016787;28;20048;-72
2023/08/16 01:46:29;;;;;;;22.85;15.63;;;;;;;;;;5008802;28;20164;-72
2023/08/16 01:48:56;;;;;;;23.13;14.65;;;;;;;;;;5018371;28;20034;-71
2023/08/16 01:51:22;;;;;;;26.42;14.60;;;;;;;;;;5011603;28;20121;-72
2023/08/16 01:53:54;;;;;;;15.73;12.77;;;;;;;;;;5020126;28;20030;-72
2023/08/16 01:56:21;;;;;;;16.42;12.45;;;;;;;;;;5026625;28;20400;-72
2023/08/16 01:58:48;;;;;;;18.25;13.43;;;;;;;;;;5004843;28;20034;-72
2023/08/16 02:01:15;;;;;;;20.23;13.75;;;;;;;;;;5021358;28;20083;-72
2023/08/16 02:03:41;;;;;;;19.27;13.60;;;;;;;;;;5013661;28;20452;-72
2023/08/16 02:06:08;;;;;;;17.00;12.50;;;;;;;;;;5016761;28;20029;-72
2023/08/16 02:08:34;;;;;;;21.77;14.25;;;;;;;;;;5021788;28;20412;-71
2023/08/16 02:11:00;;;;;;;16.77;13.07;;;;;;;;;;5022391;28;20042;-71
2023/08/16 02:13:27;;;;;;;17.33;12.65;;;;;;;;;;5020543;28;20526;-72
2023/08/16 02:16:04;;;;;;;16.33;11.90;;;;;;;;;;5020292;28;20064;-71
2023/08/16 02:18:30;;;;;;;19.77;11.93;;;;;;;;;;5021529;28;20053;-71
2023/08/16 02:20:57;;;;;;;16.58;12.85;;;;;;;;;;5021154;28;20504;-72
2023/08/16 02:23:23;;;;;;;18.30;11.90;;;;;;;;;;5012376;28;20105;-72
2023/08/16 02:25:50;;;;;;;17.63;13.00;;;;;;;;;;5021563;28;20097;-72
2023/08/16 02:28:16;;;;;;;16.92;12.63;;;;;;;;;;5021417;28;20468;-72
2023/08/16 02:30:42;;;;;;;19.92;11.88;;;;;;;;;;5023891;28;20041;-71
2023/08/16 02:33:08;;;;;;;19.52;13.05;;;;;;;;;;5019976;28;20026;-72
2023/08/16 02:35:34;;;;;;;19.25;13.00;;;;;;;;;;5026655;28;20407;-72
2023/08/16 02:38:00;;;;;;;23.85;13.88;;;;;;;;;;5016908;28;20037;-72
2023/08/16 02:40:27;;;;;;;19.17;13.05;;;;;;;;;;5012035;28;20048;-72
2023/08/16 02:42:53;;;;;;;23.52;13.40;;;;;;;;;;5020546;28;20194;-72
2023/08/16 02:45:19;;;;;;;20.27;14.40;;;;;;;;;;5017029;28;20034;-72
2023/08/16 02:47:46;;;;;;;27.77;16.55;;;;;;;;;;5026925;28;20371;-72
2023/08/16 02:50:12;;;;;;;24.00;15.23;;;;;;;;;;5020760;28;20037;-72
2023/08/16 02:52:39;;;;;;;30.63;15.05;;;;;;;;;;5018313;28;20387;-71
2023/08/16 02:55:05;;;;;;;23.38;15.02;;;;;;;;;;5015219;28;20080;-72
2023/08/16 02:57:31;;;;;;;29.02;18.45;;;;;;;;;;5020389;28;20025;-72
2023/08/16 02:59:57;;;;;;;45.22;21.15;;;;;;;;;;5030897;28;20037;-71
2023/08/16 03:02:25;;;;;;;34.28;20.58;;;;;;;;;;5048233;28;20502;-72
2023/08/16 03:04:51;;;;;;;33.95;21.10;;;;;;;;;;5012235;28;20060;-72
2023/08/16 03:07:17;;;;;;;39.55;22.23;;;;;;;;;;5030565;28;20037;-72
2023/08/16 03:09:44;;;;;;;43.30;23.40;;;;;;;;;;5026186;28;20025;-72
2023/08/16 03:12:12;;;;;;;42.25;22.42;;;;;;;;;;5033811;28;20064;-72
2023/08/16 03:14:38;;;;;;;47.35;24.15;;;;;;;;;;5012544;28;20348;-72
2023/08/16 03:17:05;;;;;;;49.95;24.48;;;;;;;;;;5019416;28;20086;-71
2023/08/16 03:19:31;;;;;;;43.58;24.20;;;;;;;;;;5018474;28;20034;-72
2023/08/16 03:21:58;;;;;;;44.97;23.75;;;;;;;;;;5031572;28;20037;-72
2023/08/16 03:24:26;;;;;;;39.30;22.30;;;;;;;;;;5019862;28;20025;-72
2023/08/16 03:26:52;;;;;;;45.40;23.65;;;;;;;;;;5033207;28;20063;-70
2023/08/16 03:29:19;;;;;;;44.42;23.63;;;;;;;;;;5025097;28;20529;-72
2023/08/16 03:31:46;;;;;;;44.17;23.67;;;;;;;;;;5026436;28;20033;-72
2023/08/16 03:34:13;;;;;;;45.70;24.63;;;;;;;;;;5024864;28;20084;-72
2023/08/16 03:36:40;;;;;;;39.28;22.08;;;;;;;;;;5027774;28;20017;-72
2023/08/16 03:39:06;;;;;;;39.00;22.08;;;;;;;;;;5035816;28;20025;-71
2023/08/16 03:41:37;;;;;;;42.05;20.33;;;;;;;;;;5028308;28;20033;-71
2023/08/16 03:44:04;;;;;;;36.05;21.48;;;;;;;;;;5020357;28;20041;-72
2023/08/16 03:46:30;;;;;;;40.40;20.42;;;;;;;;;;5026692;28;20025;-70
2023/08/16 03:48:56;;;;;;;35.92;20.98;;;;;;;;;;5021125;28;21434;-71
2023/08/16 03:51:23;;;;;;;43.00;22.10;;;;;;;;;;5026215;28;20026;-72
2023/08/16 03:53:49;;;;;;;33.58;19.98;;;;;;;;;;5027201;28;20041;-71
2023/08/16 03:56:15;;;;;;;33.90;19.08;;;;;;;;;;5037326;28;20029;-71
2023/08/16 03:58:41;;;;;;;35.83;20.27;;;;;;;;;;5023590;28;20120;-71
2023/08/16 04:01:07;;;;;;;32.35;17.42;;;;;;;;;;5001647;28;20036;-72
2023/08/16 04:03:33;;;;;;;27.02;15.80;;;;;;;;;;5029684;28;20128;-72
2023/08/16 04:05:59;;;;;;;27.83;15.98;;;;;;;;;;5042123;28;20033;-72
2023/08/16 04:08:26;;;;;;;30.05;16.33;;;;;;;;;;5035313;28;20033;-72
2023/08/16 04:10:52;;;;;;;29.88;17.17;;;;;;;;;;5040463;28;20040;-72
2023/08/16 04:13:18;;;;;;;29.85;16.95;;;;;;;;;;5038114;28;20079;-72
2023/08/16 04:15:44;;;;;;;39.95;18.50;;;;;;;;;;5044387;28;20037;-72
2023/08/16 04:18:10;;;;;;;32.20;18.80;;;;;;;;;;5022822;28;20122;-72
2023/08/16 04:20:37;;;;;;;37.22;20.20;;;;;;;;;;5025179;28;20466;-72
2023/08/16 04:23:04;;;;;;;43.67;22.17;;;;;;;;;;5026507;28;20030;-71
2023/08/16 04:25:30;;;;;;;41.58;20.83;;;;;;;;;;5041086;28;20037;-71
2023/08/16 04:27:57;;;;;;;49.85;23.77;;;;;;;;;;5026042;28;20079;-71
2023/08/16 04:30:23;;;;;;;41.55;23.58;;;;;;;;;;5029740;28;20032;-72
2023/08/16 04:32:49;;;;;;;39.67;22.23;;;;;;;;;;5011897;28;20040;-72
2023/08/16 04:35:15;;;;;;;57.97;27.48;;;;;;;;;;5035731;28;20040;-72
2023/08/16 04:37:41;;;;;;;47.63;24.67;;;;;;;;;;5003293;28;20079;-72
2023/08/16 04:40:09;;;;;;;46.63;23.85;;;;;;;;;;5025024;28;20544;-72
2023/08/16 04:42:35;;;;;;;49.17;25.17;;;;;;;;;;5012121;28;20061;-70
2023/08/16 04:45:03;;;;;;;58.58;27.88;;;;;;;;;;5014120;28;20080;-72
2023/08/16 04:47:30;;;;;;;52.70;27.48;;;;;;;;;;5030665;28;20037;-72
2023/08/16 04:49:57;;;;;;;53.05;28.58;;;;;;;;;;5009754;28;20083;-72
2023/08/16 04:52:23;;;;;;;54.47;28.75;;;;;;;;;;5019777;28;20116;-72
2023/08/16 04:54:49;;;;;;;53.90;28.73;;;;;;;;;;5033743;28;20029;-71
2023/08/16 04:57:15;;;;;;;62.35;29.90;;;;;;;;;;5014627;28;20037;-71
2023/08/16 04:59:42;;;;;;;50.47;27.75;;;;;;;;;;4996238;28;20045;-70
2023/08/16 05:02:08;;;;;;;52.38;26.75;;;;;;;;;;5040719;28;20024;-71
2023/08/16 05:04:34;;;;;;;54.85;27.52;;;;;;;;;;5023264;28;20029;-71
2023/08/16 05:07:00;;;;;;;43.40;26.05;;;;;;;;;;5007133;28;20064;-71
2023/08/16 05:09:27;;;;;;;39.38;23.58;;;;;;;;;;5029586;28;20505;-71
2023/08/16 05:11:53;;;;;;;30.10;19.40;;;;;;;;;;4998159;28;20022;-71
2023/08/16 05:14:19;;;;;;;32.53;19.45;;;;;;;;;;5010422;28;20032;-71
2023/08/16 05:16:45;;;;;;;26.95;17.00;;;;;;;;;;5024400;28;20033;-71
2023/08/16 05:19:13;;;;;;;29.20;17.95;;;;;;;;;;5021941;28;20049;-70
2023/08/16 05:21:39;;;;;;;31.90;17.92;;;;;;;;;;5022024;28;20115;-71
2023/08/16 05:24:05;;;;;;;37.42;20.38;;;;;;;;;;5034704;28;20483;-70
2023/08/16 05:26:31;;;;;;;30.45;19.98;;;;;;;;;;5029299;28;20033;-71
2023/08/16 05:28:58;;;;;;;39.97;18.52;;;;;;;;;;5037855;28;20067;-69
2023/08/16 05:31:25;;;;;;;29.90;16.58;;;;;;;;;;5034462;28;20037;-71
2023/08/16 05:33:52;;;;;;;28.77;18.98;;;;;;;;;;5038611;28;20083;-71
2023/08/16 05:36:18;;;;;;;30.35;17.27;;;;;;;;;;5037165;28;20094;-71
2023/08/16 05:38:45;;;;;;;23.55;15.68;;;;;;;;;;5034235;28;20114;-71
2023/08/16 05:41:11;;;;;;;21.13;13.95;;;;;;;;;;5025027;28;20135;-69
2023/08/16 05:43:37;;;;;;;20.10;12.90;;;;;;;;;;5037846;28;20029;-69
2023/08/16 05:46:04;;;;;;;33.95;14.40;;;;;;;;;;5030741;28;20483;-69
2023/08/16 05:48:30;;;;;;;17.63;9.65;;;;;;;;;;5012856;28;20673;-70
2023/08/16 05:50:56;;;;;;;16.15;10.05;;;;;;;;;;4998911;28;20418;-71
2023/08/16 05:53:22;;;;;;;14.73;8.60;;;;;;;;;;5030737;28;20434;-68
2023/08/16 05:55:49;;;;;;;15.15;9.63;;;;;;;;;;5020133;28;20484;-70
2023/08/16 05:58:15;;;;;;;11.95;8.02;;;;;;;;;;5020111;28;20021;-70
2023/08/16 06:00:41;;;;;;;17.13;9.27;;;;;;;;;;5045257;28;20060;-70
2023/08/16 06:03:07;;;;;;;14.57;7.78;;;;;;;;;;5049003;28;20037;-70
2023/08/16 06:05:34;;;;;;;18.42;8.73;;;;;;;;;;5035705;28;20038;-70
2023/08/16 06:08:00;;;;;;;11.57;7.80;;;;;;;;;;5028472;28;20041;-70
2023/08/16 06:10:26;;;;;;;16.10;8.30;;;;;;;;;;5029645;28;20045;-70
2023/08/16 06:12:52;;;;;;;15.90;7.70;;;;;;;;;;5043358;28;20025;-70
2023/08/16 06:15:18;;;;;;;11.95;7.25;;;;;;;;;;5011179;28;20056;-70
2023/08/16 06:17:44;;;;;;;12.35;7.65;;;;;;;;;;5026944;28;20504;-71
2023/08/16 06:20:11;;;;;;;18.80;7.28;;;;;;;;;;5015129;28;20043;-70
2023/08/16 06:22:38;;;;;;;10.40;6.20;;;;;;;;;;5048469;28;20025;-70
2023/08/16 06:25:07;;;;;;;16.08;7.40;;;;;;;;;;5031770;28;20025;-70
2023/08/16 06:27:34;;;;;;;10.40;6.00;;;;;;;;;;5043648;28;20091;-69
2023/08/16 06:30:01;;;;;;;11.10;6.10;;;;;;;;;;5032791;28;20031;-70
2023/08/16 06:32:27;;;;;;;9.80;6.47;;;;;;;;;;5015864;28;20037;-70
2023/08/16 06:34:53;;;;;;;11.25;6.72;;;;;;;;;;5047215;28;20139;-69
2023/08/16 06:37:19;;;;;;;12.70;6.13;;;;;;;;;;5029927;28;20482;-70
2023/08/16 06:39:46;;;;;;;17.80;6.28;;;;;;;;;;5034280;28;20162;-71
2023/08/16 06:42:13;;;;;;;14.98;5.75;;;;;;;;;;5028764;28;20114;-70
2023/08/16 06:44:39;;;;;;;10.70;6.00;;;;;;;;;;5029508;28;20041;-71
2023/08/16 06:47:06;;;;;;;15.07;6.40;;;;;;;;;;5027153;28;20029;-71
2023/08/16 06:49:32;;;;;;;11.95;6.03;;;;;;;;;;5039962;28;20033;-70
2023/08/16 06:51:58;;;;;;;15.25;6.57;;;;;;;;;;5023450;28;20041;-69
2023/08/16 06:54:24;;;;;;;10.90;6.75;;;;;;;;;;5017570;28;20272;-70
2023/08/16 06:56:50;;;;;;;17.80;6.63;;;;;;;;;;5029222;28;20436;-70
2023/08/16 06:59:16;;;;;;;15.82;6.95;;;;;;;;;;5028572;28;20053;-70
2023/08/16 07:01:42;;;;;;;12.10;7.55;;;;;;;;;;5028458;28;20024;-70
2023/08/16 07:04:09;;;;;;;13.38;7.68;;;;;;;;;;5031136;28;20532;-71
2023/08/16 07:06:35;;;;;;;17.92;8.55;;;;;;;;;;5030155;28;20041;-70
2023/08/16 07:09:04;;;;;;;19.17;8.70;;;;;;;;;;5017081;28;20061;-68
2023/08/16 07:11:31;;;;;;;19.35;8.77;;;;;;;;;;5036640;28;20192;-70
2023/08/16 07:13:59;;;;;;;17.58;7.78;;;;;;;;;;5034662;28;20137;-68
2023/08/16 07:16:25;;;;;;;15.57;7.30;;;;;;;;;;5037784;28;20368;-69
2023/08/16 07:18:51;;;;;;;13.70;7.50;;;;;;;;;;5047436;28;20021;-69
2023/08/16 07:21:17;;;;;;;14.98;8.15;;;;;;;;;;5018391;28;20026;-70
2023/08/16 07:23:44;;;;;;;13.73;7.47;;;;;;;;;;5044670;28;20208;-69
2023/08/16 07:26:10;;;;;;;15.60;7.55;;;;;;;;;;5038609;28;20063;-68
2023/08/16 07:28:36;;;;;;;12.73;6.72;;;;;;;;;;5050318;28;20039;-70
2023/08/16 07:31:03;;;;;;;13.80;6.30;;;;;;;;;;5048647;28;20040;-70
2023/08/16 07:33:34;;;;;;;15.23;6.25;;;;;;;;;;5036752;28;21414;-70
2023/08/16 07:36:01;;;;;;;17.00;6.22;;;;;;;;;;5027569;28;20038;-70
2023/08/16 07:38:32;;;;;;;9.38;4.55;;;;;;;;;;5029817;28;20020;-68
2023/08/16 07:40:59;;;;;;;10.77;4.40;;;;;;;;;;5033854;28;20383;-70
2023/08/16 07:43:25;;;;;;;9.43;4.60;;;;;;;;;;5034906;28;20025;-70
2023/08/16 07:45:52;;;;;;;8.65;3.80;;;;;;;;;;5033549;28;20033;-69
2023/08/16 07:48:18;;;;;;;8.07;3.60;;;;;;;;;;5040158;28;20497;-70
2023/08/16 07:50:45;;;;;;;9.40;3.40;;;;;;;;;;5038459;28;20069;-69
2023/08/16 07:53:12;;;;;;;13.77;4.18;;;;;;;;;;5035499;28;20159;-70
2023/08/16 07:55:38;;;;;;;9.75;4.03;;;;;;;;;;5036361;28;20088;-70
2023/08/16 07:58:04;;;;;;;10.13;3.15;;;;;;;;;;5034542;28;20041;-70
2023/08/16 08:00:30;;;;;;;8.15;2.72;;;;;;;;;;5013929;28;20041;-69
2023/08/16 08:02:56;;;;;;;7.47;2.42;;;;;;;;;;5031737;28;20041;-70
2023/08/16 08:05:23;;;;;;;8.25;2.88;;;;;;;;;;5014089;28;20236;-70
2023/08/16 08:07:50;;;;;;;6.03;2.45;;;;;;;;;;5049570;28;20367;-69
2023/08/16 08:10:16;;;;;;;9.75;1.98;;;;;;;;;;5051430;28;20032;-69
2023/08/16 08:12:46;;;;;;;7.13;2.30;;;;;;;;;;5025265;28;20053;-72
2023/08/16 08:15:13;;;;;;;6.73;2.30;;;;;;;;;;5030932;28;20087;-69
2023/08/16 08:17:39;;;;;;;6.60;2.80;;;;;;;;;;5029192;28;20033;-70
2023/08/16 08:20:06;;;;;;;7.30;2.58;;;;;;;;;;5037781;28;20025;-69
2023/08/16 08:22:32;;;;;;;6.95;2.20;;;;;;;;;;5033158;28;20384;-69
2023/08/16 08:24:58;;;;;;;6.65;2.35;;;;;;;;;;5035216;28;20029;-69
2023/08/16 08:27:24;;;;;;;7.25;1.90;;;;;;;;;;5047189;28;20055;-68
2023/08/16 08:29:50;;;;;;;6.18;2.15;;;;;;;;;;5050939;28;20041;-70
2023/08/16 08:32:17;;;;;;;6.78;2.45;;;;;;;;;;5043747;28;20037;-70
2023/08/16 08:34:44;;;;;;;8.10;2.08;;;;;;;;;;5027519;28;20411;-69
2023/08/16 08:37:10;;;;;;;6.38;2.00;;;;;;;;;;5041664;28;20033;-69
2023/08/16 08:39:36;;;;;;;6.43;1.70;;;;;;;;;;5042679;28;20104;-69
2023/08/16 08:42:08;;;;;;;4.63;1.70;;;;;;;;;;5022575;28;20032;-70
2023/08/16 08:44:36;;;;;;;5.20;1.60;;;;;;;;;;5034785;28;20026;-70
2023/08/16 08:47:05;;;;;;;5.15;1.80;;;;;;;;;;5026481;28;20057;-70
2023/08/16 08:49:34;;;;;;;3.93;1.70;;;;;;;;;;5042824;28;20026;-70
2023/08/16 08:52:02;;;;;;;6.03;1.95;;;;;;;;;;5041364;28;20378;-70
2023/08/16 08:54:28;;;;;;;5.68;1.13;;;;;;;;;;5031308;28;20107;-70
2023/08/16 08:56:55;;;;;;;5.15;1.50;;;;;;;;;;5044824;28;20029;-69
2023/08/16 08:59:21;;;;;;;6.32;1.60;;;;;;;;;;5039770;28;20059;-69
2023/08/16 09:01:49;;;;;;;4.35;1.30;;;;;;;;;;5037897;28;20056;-70
2023/08/16 09:04:15;;;;;;;5.32;1.67;;;;;;;;;;5033144;28;20021;-70
2023/08/16 09:06:42;;;;;;;3.53;1.30;;;;;;;;;;5043437;28;20434;-70
2023/08/16 09:09:09;;;;;;;4.13;1.30;;;;;;;;;;5018078;28;20026;-69
2023/08/16 09:11:36;;;;;;;4.20;1.50;;;;;;;;;;5034116;28;20032;-71
2023/08/16 09:14:03;;;;;;;4.53;1.60;;;;;;;;;;5030078;28;20033;-70
2023/08/16 09:16:30;;;;;;;4.80;1.35;;;;;;;;;;5029978;28;20040;-69
2023/08/16 09:18:56;;;;;;;5.22;1.63;;;;;;;;;;5030279;28;20117;-70
2023/08/16 09:21:28;;;;;;;7.07;1.80;;;;;;;;;;5030299;28;20112;-71
2023/08/16 09:23:58;;;;;;;5.15;1.45;;;;;;;;;;5043748;28;20064;-69
2023/08/16 09:26:24;;;;;;;4.10;1.50;;;;;;;;;;5038195;28;20029;-70
2023/08/16 09:29:00;;;;;;;5.40;1.65;;;;;;;;;;5031411;28;20022;-70
2023/08/16 09:31:29;;;;;;;5.05;1.33;;;;;;;;;;5030938;28;20151;-70
2023/08/16 09:33:55;;;;;;;7.43;1.52;;;;;;;;;;5041581;28;20029;-70
2023/08/16 09:36:22;;;;;;;10.93;2.50;;;;;;;;;;5036221;28;20123;-70
2023/08/16 09:38:48;;;;;;;4.13;1.80;;;;;;;;;;5033502;28;20056;-69
2023/08/16 09:41:16;;;;;;;6.85;1.58;;;;;;;;;;5039170;28;20068;-69
2023/08/16 09:43:42;;;;;;;5.50;1.33;;;;;;;;;;5037752;28;20051;-69
2023/08/16 09:46:09;;;;;;;4.88;1.20;;;;;;;;;;5036158;28;20032;-71
2023/08/16 09:48:35;;;;;;;3.42;1.25;;;;;;;;;;5038768;28;20033;-69
2023/08/16 09:51:07;;;;;;;4.80;1.15;;;;;;;;;;5034532;28;20032;-71
2023/08/16 09:53:33;;;;;;;14.85;1.70;;;;;;;;;;5030060;28;20081;-68
2023/08/16 09:56:00;;;;;;;5.53;1.33;;;;;;;;;;5040521;28;20029;-71
2023/08/16 09:58:27;;;;;;;5.88;1.50;;;;;;;;;;5018863;28;20483;-70
2023/08/16 10:00:55;;;;;;;3.55;1.33;;;;;;;;;;5033993;28;20045;-69
2023/08/16 10:03:21;;;;;;;3.40;1.10;;;;;;;;;;5029800;28;20225;-70
2023/08/16 10:05:48;;;;;;;3.50;1.52;;;;;;;;;;5024194;28;20109;-70
2023/08/16 10:08:14;;;;;;;3.58;1.17;;;;;;;;;;5028955;28;20073;-71
2023/08/16 10:10:41;;;;;;;2.33;1.30;;;;;;;;;;5031618;28;20064;-70
2023/08/16 10:13:08;;;;;;;7.97;1.55;;;;;;;;;;5033624;28;20036;-70
2023/08/16 10:15:34;;;;;;;5.72;1.55;;;;;;;;;;5037957;28;20379;-70
2023/08/16 10:18:02;;;;;;;6.20;1.60;;;;;;;;;;5038068;28;20099;-70
2023/08/16 10:20:32;;;;;;;4.20;1.50;;;;;;;;;;5013166;28;20030;-70
2023/08/16 10:22:59;;;;;;;3.97;1.58;;;;;;;;;;5035702;28;20057;-70
2023/08/16 10:25:28;;;;;;;5.25;1.52;;;;;;;;;;5036212;28;20033;-69
2023/08/16 10:27:58;;;;;;;3.08;1.33;;;;;;;;;;4997199;28;20179;-72
2023/08/16 10:30:25;;;;;;;2.95;1.40;;;;;;;;;;5010796;28;20810;-70
2023/08/16 10:32:55;;;;;;;5.18;1.50;;;;;;;;;;5031618;28;20032;-70
2023/08/16 10:35:21;;;;;;;3.63;1.23;;;;;;;;;;5037085;28;20033;-70
2023/08/16 10:37:48;;;;;;;2.22;1.35;;;;;;;;;;5035103;28;20072;-72
2023/08/16 10:40:18;;;;;;;4.68;1.50;;;;;;;;;;5036425;28;20021;-70
2023/08/16 10:42:54;;;;;;;3.08;1.30;;;;;;;;;;5036180;28;20025;-70
2023/08/16 10:45:27;;;;;;;9.18;1.50;;;;;;;;;;5035586;28;20021;-71
2023/08/16 10:47:54;;;;;;;2.85;1.27;;;;;;;;;;5040073;28;20041;-71
2023/08/16 10:50:20;;;;;;;4.63;1.40;;;;;;;;;;5037349;28;20464;-69
2023/08/16 10:52:46;;;;;;;14.82;1.50;;;;;;;;;;5041717;28;20123;-70
2023/08/16 10:55:13;;;;;;;3.03;1.25;;;;;;;;;;5043971;28;20025;-71
2023/08/16 10:57:49;;;;;;;2.47;1.20;;;;;;;;;;5038390;28;20497;-71
2023/08/16 11:00:16;;;;;;;3.38;1.25;;;;;;;;;;5023940;28;20065;-72
2023/08/16 11:02:43;;;;;;;5.18;1.20;;;;;;;;;;5035812;28;20097;-70
2023/08/16 11:05:19;;;;;;;3.30;1.42;;;;;;;;;;5035501;28;20030;-69
2023/08/16 11:07:45;;;;;;;3.10;1.35;;;;;;;;;;5030601;28;20128;-71
2023/08/16 11:10:11;;;;;;;3.28;1.10;;;;;;;;;;5033575;28;20029;-70
2023/08/16 11:12:38;;;;;;;4.00;1.30;;;;;;;;;;5018858;28;20674;-71
2023/08/16 11:15:05;;;;;;;3.60;1.30;;;;;;;;;;5033885;28;20091;-70
2023/08/16 11:17:32;;;;;;;4.72;1.50;;;;;;;;;;5032356;28;20036;-69
2023/08/16 11:20:00;;;;;;;3.45;1.30;;;;;;;;;;5034920;28;20026;-70
2023/08/16 11:22:26;;;;;;;2.63;1.40;;;;;;;;;;5024872;28;21664;-71
2023/08/16 11:24:53;;;;;;;3.42;1.17;;;;;;;;;;5017609;28;20044;-69
2023/08/16 11:27:25;;;;;;;9.65;1.48;;;;;;;;;;5034027;28;20316;-70
2023/08/16 11:29:51;;;;;;;4.97;1.27;;;;;;;;;;5034654;28;20029;-69
2023/08/16 11:32:31;;;;;;;3.78;1.60;;;;;;;;;;5022013;28;20357;-70
2023/08/16 11:34:57;;;;;;;3.30;0.90;;;;;;;;;;5031058;28;20035;-70
2023/08/16 11:37:24;;;;;;;2.70;1.17;;;;;;;;;;5026764;28;20041;-70
2023/08/16 11:40:07;;;;;;;3.35;1.40;;;;;;;;;;5017166;28;20040;-70
2023/08/16 11:42:33;;;;;;;4.28;1.40;;;;;;;;;;5032130;28;20051;-70
2023/08/16 11:45:00;;;;;;;4.55;1.30;;;;;;;;;;5035504;28;20107;-70
2023/08/16 11:47:26;;;;;;;3.45;1.30;;;;;;;;;;5033927;28;21393;-69
2023/08/16 11:49:52;;;;;;;4.40;1.50;;;;;;;;;;5038017;28;20042;-70
2023/08/16 11:52:22;;;;;;;4.43;1.83;;;;;;;;;;5025172;28;20493;-70
2023/08/16 11:54:48;;;;;;;4.43;1.45;;;;;;;;;;5034836;28;20041;-70
2023/08/16 11:57:16;;;;;;;5.10;1.60;;;;;;;;;;5035383;28;20091;-71
2023/08/16 11:59:54;;;;;;;2.67;1.30;;;;;;;;;;5032392;28;20049;-70
2023/08/16 12:02:20;;;;;;;4.90;1.55;;;;;;;;;;5025728;28;20087;-70
2023/08/16 12:04:47;;;;;;;5.47;1.70;;;;;;;;;;5037768;28;20025;-72
2023/08/16 12:07:13;;;;;;;4.53;1.55;;;;;;;;;;5034805;28;20311;-70
2023/08/16 12:09:40;;;;;;;7.63;1.70;;;;;;;;;;5034785;28;20033;-71
2023/08/16 12:12:10;;;;;;;4.53;1.50;;;;;;;;;;5022184;28;20044;-69
2023/08/16 12:14:36;;;;;;;3.67;1.77;;;;;;;;;;5033880;28;20034;-69
2023/08/16 12:17:02;;;;;;;4.40;1.70;;;;;;;;;;5033187;28;20032;-70
2023/08/16 12:19:29;;;;;;;3.50;1.40;;;;;;;;;;5017219;28;20036;-76
2023/08/16 12:21:55;;;;;;;4.75;1.83;;;;;;;;;;5031920;28;20025;-71
2023/08/16 12:24:21;;;;;;;4.43;1.60;;;;;;;;;;5032149;28;20056;-70
2023/08/16 12:26:47;;;;;;;6.50;1.80;;;;;;;;;;5030316;28;20037;-70
2023/08/16 12:29:13;;;;;;;7.85;1.70;;;;;;;;;;5033101;28;20029;-69
2023/08/16 12:31:39;;;;;;;5.95;1.52;;;;;;;;;;5032660;28;20036;-69
2023/08/16 12:34:07;;;;;;;9.18;1.60;;;;;;;;;;5015520;28;20031;-70
2023/08/16 12:36:34;;;;;;;4.63;1.52;;;;;;;;;;5034657;28;20103;-70
2023/08/16 12:39:00;;;;;;;4.50;1.40;;;;;;;;;;5031615;28;20053;-70
2023/08/16 12:41:26;;;;;;;3.60;1.50;;;;;;;;;;5030947;28;20021;-70
2023/08/16 12:43:52;;;;;;;3.45;1.50;;;;;;;;;;5024740;28;20017;-70
2023/08/16 12:46:19;;;;;;;3.45;1.33;;;;;;;;;;5038258;28;20041;-70
2023/08/16 12:48:45;;;;;;;5.40;1.65;;;;;;;;;;5035030;28;20022;-70
2023/08/16 12:51:12;;;;;;;5.25;1.58;;;;;;;;;;5014647;28;20518;-69
2023/08/16 12:53:38;;;;;;;3.53;1.40;;;;;;;;;;5032732;28;20055;-71
2023/08/16 12:56:04;;;;;;;4.78;1.50;;;;;;;;;;5031283;28;20022;-70
2023/08/16 12:58:30;;;;;;;5.65;1.80;;;;;;;;;;5038302;28;20037;-70
2023/08/16 13:00:56;;;;;;;4.63;1.40;;;;;;;;;;5038298;28;20045;-70
2023/08/16 13:03:23;;;;;;;3.85;1.60;;;;;;;;;;5031667;28;20461;-70
2023/08/16 13:05:49;;;;;;;4.95;1.42;;;;;;;;;;5044747;28;20020;-70
2023/08/16 13:08:15;;;;;;;4.32;1.40;;;;;;;;;;5041236;28;20029;-70
2023/08/16 13:10:41;;;;;;;4.25;1.60;;;;;;;;;;5029020;28;20124;-70
2023/08/16 13:13:08;;;;;;;4.07;1.63;;;;;;;;;;5036219;28;20465;-69
2023/08/16 13:15:35;;;;;;;4.95;1.75;;;;;;;;;;5015117;28;20041;-70
2023/08/16 13:18:02;;;;;;;3.75;1.40;;;;;;;;;;5040336;28;20029;-69
2023/08/16 13:20:29;;;;;;;3.80;1.40;;;;;;;;;;5017405;28;20060;-70
2023/08/16 13:22:55;;;;;;;5.85;1.63;;;;;;;;;;5029982;28;20044;-70
2023/08/16 13:25:22;;;;;;;7.60;1.80;;;;;;;;;;5030283;28;20036;-70
2023/08/16 13:27:48;;;;;;;4.97;1.70;;;;;;;;;;5042124;28;20025;-70
2023/08/16 13:30:15;;;;;;;3.38;1.63;;;;;;;;;;5035233;28;20037;-70
2023/08/16 13:32:41;;;;;;;3.78;1.42;;;;;;;;;;5032972;28;20194;-71
2023/08/16 13:35:07;;;;;;;4.72;1.70;;;;;;;;;;5030313;28;20124;-69
2023/08/16 13:37:33;;;;;;;2.50;1.30;;;;;;;;;;5037512;28;20034;-71
2023/08/16 13:39:59;;;;;;;3.63;1.52;;;;;;;;;;5031111;28;20540;-70
2023/08/16 13:42:26;;;;;;;4.35;1.33;;;;;;;;;;5032456;28;20053;-71
2023/08/16 13:44:52;;;;;;;3.55;1.67;;;;;;;;;;5016501;28;20029;-71
2023/08/16 13:47:18;;;;;;;3.75;1.30;;;;;;;;;;5028717;28;20192;-72
2023/08/16 13:49:45;;;;;;;4.28;1.48;;;;;;;;;;5019508;28;20045;-71
2023/08/16 13:52:11;;;;;;;9.82;1.70;;;;;;;;;;5030217;28;20040;-70
2023/08/16 13:54:38;;;;;;;3.97;1.60;;;;;;;;;;5032893;28;20029;-70
2023/08/16 13:57:04;;;;;;;6.72;1.52;;;;;;;;;;5028656;28;20486;-70
2023/08/16 13:59:30;;;;;;;3.33;1.40;;;;;;;;;;5029711;28;20041;-69
2023/08/16 14:01:56;;;;;;;6.57;1.80;;;;;;;;;;5028174;28;20443;-70
2023/08/16 14:04:22;;;;;;;4.53;1.42;;;;;;;;;;5035752;28;20113;-70
2023/08/16 14:06:49;;;;;;;5.40;1.52;;;;;;;;;;5031727;28;20041;-70
2023/08/16 14:09:15;;;;;;;3.63;1.58;;;;;;;;;;5033689;28;21478;-70
2023/08/16 14:11:41;;;;;;;3.97;1.50;;;;;;;;;;5030798;28;20041;-73
2023/08/16 14:14:07;;;;;;;2.67;1.65;;;;;;;;;;5029852;28;20184;-69
2023/08/16 14:16:33;;;;;;;3.92;1.55;;;;;;;;;;5013771;28;20040;-70
2023/08/16 14:18:59;;;;;;;4.28;1.60;;;;;;;;;;5034152;28;20128;-69
2023/08/16 14:21:25;;;;;;;4.88;1.80;;;;;;;;;;5034456;28;20057;-69
2023/08/16 14:23:51;;;;;;;3.05;1.42;;;;;;;;;;5026342;28;20031;-68
2023/08/16 14:26:19;;;;;;;8.40;1.55;;;;;;;;;;5032646;28;20053;-70
2023/08/16 14:28:45;;;;;;;6.22;1.85;;;;;;;;;;5034363;28;20108;-69